createdAt,value
2022-12-27T00:02:07.953Z,9.42
2022-12-27T00:04:35.621Z,9.63
2022-12-27T00:07:03.258Z,9.66
2022-12-27T00:09:30.613Z,9.67
2022-12-27T00:12:00.018Z,9.70
2022-12-27T00:14:27.814Z,9.74
2022-12-27T00:16:55.161Z,9.80
2022-12-27T00:19:22.840Z,9.29
2022-12-27T00:21:50.257Z,9.42
2022-12-27T00:24:17.588Z,9.52
2022-12-27T00:26:45.224Z,9.66
2022-12-27T00:29:12.601Z,9.77
2022-12-27T00:31:40.232Z,9.73
2022-12-27T00:34:08.216Z,9.74
2022-12-27T00:36:35.781Z,9.83
2022-12-27T00:39:03.418Z,9.79
2022-12-27T00:41:31.428Z,9.92
2022-12-27T00:43:58.850Z,9.58
2022-12-27T00:46:26.209Z,9.47
2022-12-27T00:48:55.281Z,8.88
2022-12-27T00:51:23.741Z,9.46
2022-12-27T00:53:51.676Z,8.70
2022-12-27T00:56:21.001Z,8.38
2022-12-27T00:58:48.359Z,8.56
2022-12-27T01:01:19.551Z,9.07
2022-12-27T01:03:48.274Z,9.61
2022-12-27T01:06:17.592Z,9.25
2022-12-27T01:08:45.363Z,9.06
2022-12-27T01:11:13.265Z,9.17
2022-12-27T01:13:40.649Z,9.15
2022-12-27T01:16:12.480Z,9.14
2022-12-27T01:18:40.151Z,9.25
2022-12-27T01:21:08.214Z,9.45
2022-12-27T01:23:35.949Z,9.49
2022-12-27T01:26:07.979Z,9.53
2022-12-27T01:28:35.557Z,9.57
2022-12-27T01:31:07.030Z,9.49
2022-12-27T01:33:34.712Z,9.74
2022-12-27T01:36:28.787Z,9.34
2022-12-27T01:38:58.093Z,9.40
2022-12-27T01:41:52.107Z,9.46
2022-12-27T01:44:38.481Z,9.66
2022-12-27T01:47:32.760Z,9.60
2022-12-27T01:50:15.182Z,9.68
2022-12-27T01:53:17.624Z,9.71
2022-12-27T01:56:04.698Z,9.45
2022-12-27T01:58:48.617Z,9.35
2022-12-27T02:01:18.208Z,9.47
2022-12-27T02:03:48.405Z,10.10
2022-12-27T02:06:16.047Z,10.73
2022-12-27T02:08:57.017Z,10.81
2022-12-27T02:11:51.334Z,10.58
2022-12-27T02:14:42.957Z,10.14
2022-12-27T02:17:16.134Z,10.60
2022-12-27T02:20:00.914Z,10.70
2022-12-27T02:23:05.581Z,11.01
2022-12-27T02:25:51.132Z,11.41
2022-12-27T02:28:46.314Z,10.48
2022-12-27T02:31:29.172Z,11.11
2022-12-27T02:33:56.850Z,11.57
2022-12-27T02:36:27.265Z,11.49
2022-12-27T02:38:56.704Z,11.48
2022-12-27T02:41:43.066Z,11.36
2022-12-27T02:44:30.427Z,11.35
2022-12-27T02:47:16.892Z,11.28
2022-12-27T02:50:02.934Z,11.64
2022-12-27T02:52:58.365Z,11.52
2022-12-27T02:56:04.359Z,11.48
2022-12-27T02:58:53.882Z,11.23
2022-12-27T03:01:52.168Z,11.02
2022-12-27T03:04:38.722Z,11.34
2022-12-27T03:07:08.636Z,10.28
2022-12-27T03:10:13.650Z,10.85
2022-12-27T03:13:27.264Z,11.09
2022-12-27T03:16:21.266Z,11.01
2022-12-27T03:19:00.903Z,10.54
2022-12-27T03:21:52.774Z,11.04
2022-12-27T03:24:41.433Z,11.52
2022-12-27T03:27:17.959Z,11.38
2022-12-27T03:30:09.007Z,11.57
2022-12-27T03:32:57.978Z,11.73
2022-12-27T03:35:25.457Z,11.45
2022-12-27T03:38:02.477Z,11.38
2022-12-27T03:40:35.135Z,11.41
2022-12-27T03:43:13.624Z,11.34
2022-12-27T03:46:13.350Z,11.52
2022-12-27T03:49:10.324Z,11.04
2022-12-27T03:51:40.329Z,11.21
2022-12-27T03:54:15.416Z,11.08
2022-12-27T03:56:42.818Z,10.98
2022-12-27T03:59:10.616Z,10.88
2022-12-27T04:01:38.063Z,10.96
2022-12-27T04:04:06.199Z,10.85
2022-12-27T04:06:33.578Z,10.81
2022-12-27T04:09:19.738Z,10.68
2022-12-27T04:12:05.616Z,10.76
2022-12-27T04:14:52.161Z,10.56
2022-12-27T04:17:38.513Z,10.43
2022-12-27T04:20:25.102Z,10.59
2022-12-27T04:23:11.706Z,10.31
2022-12-27T04:25:57.603Z,10.36
2022-12-27T04:28:43.744Z,10.39
2022-12-27T04:31:29.721Z,10.21
2022-12-27T04:34:15.665Z,10.21
2022-12-27T04:36:42.967Z,10.08
2022-12-27T04:39:11.935Z,9.10
2022-12-27T04:41:58.861Z,9.68
2022-12-27T04:44:45.153Z,9.73
2022-12-27T04:47:32.193Z,9.38
2022-12-27T04:50:18.564Z,9.66
2022-12-27T04:53:04.514Z,9.05
2022-12-27T04:55:32.125Z,9.10
2022-12-27T04:57:59.532Z,9.54
2022-12-27T05:00:47.290Z,9.53
2022-12-27T05:03:19.407Z,9.47
2022-12-27T05:05:46.905Z,8.46
2022-12-27T05:08:32.798Z,8.96
2022-12-27T05:11:19.708Z,8.41
2022-12-27T05:14:02.285Z,9.08
2022-12-27T05:16:37.751Z,9.35
2022-12-27T05:19:06.147Z,8.89
2022-12-27T05:21:39.895Z,8.86
2022-12-27T05:24:26.131Z,8.62
2022-12-27T05:26:56.068Z,9.33
2022-12-27T05:29:23.387Z,8.68
2022-12-27T05:31:50.754Z,8.46
2022-12-27T05:34:18.383Z,9.21
2022-12-27T05:36:45.703Z,9.03
2022-12-27T05:39:13.088Z,8.71
2022-12-27T05:41:40.716Z,9.13
2022-12-27T05:44:08.056Z,8.87
2022-12-27T05:46:36.060Z,9.37
2022-12-27T05:49:03.701Z,9.26
2022-12-27T05:51:31.059Z,8.55
2022-12-27T05:53:58.401Z,8.95
2022-12-27T05:56:26.025Z,9.26
2022-12-27T05:58:53.553Z,9.33
2022-12-27T06:01:21.058Z,8.56
2022-12-27T06:03:48.705Z,8.42
2022-12-27T06:06:16.031Z,7.86
2022-12-27T06:08:43.398Z,7.90
2022-12-27T06:11:12.623Z,8.03
2022-12-27T06:13:40.363Z,8.72
2022-12-27T06:16:08.655Z,9.01
2022-12-27T06:18:37.038Z,9.16
2022-12-27T06:21:08.036Z,9.49
2022-12-27T06:23:37.047Z,9.61
2022-12-27T06:26:08.104Z,9.37
2022-12-27T06:28:36.025Z,9.46
2022-12-27T06:31:03.374Z,8.76
2022-12-27T06:33:30.805Z,9.21
2022-12-27T06:35:58.444Z,8.94
2022-12-27T06:38:25.894Z,8.99
2022-12-27T06:40:53.291Z,9.36
2022-12-27T06:43:20.906Z,9.31
2022-12-27T06:45:56.221Z,8.98
2022-12-27T06:48:24.118Z,9.44
2022-12-27T06:50:51.453Z,9.52
2022-12-27T06:53:18.856Z,9.53
2022-12-27T06:55:46.997Z,9.62
2022-12-27T06:58:14.973Z,9.07
2022-12-27T07:00:44.051Z,9.44
2022-12-27T07:03:11.685Z,9.53
2022-12-27T07:05:39.078Z,9.04
2022-12-27T07:08:06.568Z,9.35
2022-12-27T07:10:34.151Z,8.44
2022-12-27T07:13:01.764Z,8.37
2022-12-27T07:15:29.365Z,8.87
2022-12-27T07:17:57.004Z,8.50
2022-12-27T07:20:24.425Z,8.44
2022-12-27T07:22:51.815Z,8.88
2022-12-27T07:25:19.406Z,8.77
2022-12-27T07:27:46.762Z,8.98
2022-12-27T07:30:14.201Z,8.74
2022-12-27T07:32:41.845Z,9.36
2022-12-27T07:35:09.265Z,8.84
2022-12-27T07:37:37.409Z,8.33
2022-12-27T07:40:05.510Z,8.59
2022-12-27T07:42:32.778Z,8.65
2022-12-27T07:45:00.237Z,8.87
2022-12-27T07:47:28.299Z,8.56
2022-12-27T07:49:55.673Z,8.58
2022-12-27T07:52:23.002Z,8.56
2022-12-27T07:54:50.590Z,8.60
2022-12-27T07:57:17.954Z,8.72
2022-12-27T07:59:45.299Z,8.90
2022-12-27T08:02:13.783Z,8.73
2022-12-27T08:04:41.588Z,8.74
2022-12-27T08:07:13.552Z,9.02
2022-12-27T08:09:41.248Z,8.79
2022-12-27T08:12:08.674Z,8.89
2022-12-27T08:14:36.168Z,8.89
2022-12-27T08:17:22.687Z,9.21
2022-12-27T08:19:53.421Z,9.19
2022-12-27T08:22:21.828Z,8.78
2022-12-27T08:24:49.399Z,8.82
2022-12-27T08:27:23.282Z,8.57
2022-12-27T08:29:50.954Z,8.61
2022-12-27T08:32:18.316Z,8.69
2022-12-27T08:34:45.667Z,8.63
2022-12-27T08:37:13.815Z,8.61
2022-12-27T08:39:41.427Z,8.44
2022-12-27T08:42:11.746Z,9.09
2022-12-27T08:44:39.408Z,9.03
2022-12-27T08:47:07.047Z,9.05
2022-12-27T08:49:34.476Z,9.14
2022-12-27T08:52:02.131Z,8.94
2022-12-27T08:54:29.488Z,8.79
2022-12-27T08:56:56.822Z,9.04
2022-12-27T08:59:24.459Z,8.81
2022-12-27T09:01:51.813Z,8.98
2022-12-27T09:04:19.266Z,8.72
2022-12-27T09:06:46.848Z,8.28
2022-12-27T09:09:14.167Z,8.25
2022-12-27T09:11:41.585Z,8.74
2022-12-27T09:14:09.615Z,8.27
2022-12-27T09:16:37.045Z,8.58
2022-12-27T09:19:04.783Z,8.60
2022-12-27T09:21:33.980Z,8.53
2022-12-27T09:24:01.554Z,8.40
2022-12-27T09:26:29.871Z,8.10
2022-12-27T09:28:57.605Z,8.42
2022-12-27T09:31:25.137Z,8.48
2022-12-27T09:33:52.951Z,8.48
2022-12-27T09:36:25.008Z,8.64
2022-12-27T09:38:52.827Z,8.42
2022-12-27T09:45:00.949Z,8.20
2022-12-27T09:47:34.631Z,8.08
2022-12-27T09:50:26.011Z,8.03
2022-12-27T09:52:59.208Z,8.17
2022-12-27T09:55:43.044Z,7.80
2022-12-27T09:58:34.862Z,7.62
2022-12-27T10:01:02.587Z,7.94
2022-12-27T10:03:30.234Z,7.77
2022-12-27T10:06:38.070Z,7.56
2022-12-27T10:09:17.794Z,7.71
2022-12-27T10:12:23.405Z,7.29
2022-12-27T10:15:23.892Z,7.52
2022-12-27T10:18:03.361Z,7.20
2022-12-27T10:20:58.315Z,7.08
2022-12-27T10:23:28.386Z,7.31
2022-12-27T10:26:00.369Z,7.40
2022-12-27T10:28:39.417Z,7.24
2022-12-27T10:31:13.033Z,7.36
2022-12-27T10:33:40.559Z,7.22
2022-12-27T10:36:10.491Z,7.15
2022-12-27T10:38:37.900Z,6.97
2022-12-27T10:41:32.248Z,7.24
2022-12-27T10:44:00.101Z,7.07
2022-12-27T10:46:33.323Z,7.07
2022-12-27T10:49:22.443Z,7.17
2022-12-27T10:51:54.074Z,7.32
2022-12-27T10:54:26.501Z,7.24
2022-12-27T10:56:54.055Z,7.32
2022-12-27T10:59:22.588Z,7.34
2022-12-27T11:02:14.981Z,7.33
2022-12-27T11:04:56.900Z,7.47
2022-12-27T11:07:28.778Z,7.43
2022-12-27T11:10:07.883Z,7.53
2022-12-27T11:12:36.249Z,7.53
2022-12-27T11:15:10.043Z,7.33
2022-12-27T11:17:50.384Z,7.39
2022-12-27T11:20:25.641Z,7.29
2022-12-27T11:23:04.041Z,7.32
2022-12-27T11:25:31.677Z,7.45
2022-12-27T11:28:06.952Z,7.62
2022-12-27T11:30:36.686Z,7.50
2022-12-27T11:33:06.978Z,7.40
2022-12-27T11:35:37.378Z,7.77
2022-12-27T11:38:04.809Z,7.38
2022-12-27T11:40:34.739Z,7.66
2022-12-27T11:43:08.083Z,7.81
2022-12-27T11:45:44.619Z,7.30
2022-12-27T11:48:35.725Z,7.25
2022-12-27T11:51:41.061Z,7.18
2022-12-27T11:54:26.833Z,7.36
2022-12-27T11:57:00.763Z,7.23
2022-12-27T11:59:36.654Z,6.86
2022-12-27T12:02:26.668Z,7.14
2022-12-27T12:05:09.534Z,7.02
2022-12-27T12:07:36.986Z,7.19
2022-12-27T12:10:35.215Z,7.22
2022-12-27T12:13:12.005Z,7.18
2022-12-27T12:15:48.631Z,6.86
2022-12-27T12:18:43.093Z,6.83
2022-12-27T12:21:26.859Z,6.93
2022-12-27T12:24:14.863Z,6.61
2022-12-27T12:27:04.328Z,6.91
2022-12-27T12:30:10.324Z,6.85
2022-12-27T12:32:56.369Z,6.70
2022-12-27T12:35:38.788Z,6.81
2022-12-27T12:38:12.938Z,6.14
2022-12-27T12:41:03.420Z,6.03
2022-12-27T12:43:49.710Z,6.17
2022-12-27T12:46:25.957Z,6.34
2022-12-27T12:49:26.301Z,6.25
2022-12-27T12:52:19.663Z,6.45
2022-12-27T12:55:01.438Z,6.28
2022-12-27T12:57:40.889Z,5.88
2022-12-27T13:00:12.691Z,5.77
2022-12-27T13:03:17.153Z,5.90
2022-12-27T13:06:03.527Z,5.97
2022-12-27T13:09:03.574Z,5.96
2022-12-27T13:11:40.309Z,6.19
2022-12-27T13:14:25.172Z,6.19
2022-12-27T13:17:07.327Z,5.82
2022-12-27T13:19:55.837Z,5.75
2022-12-27T13:22:58.235Z,5.85
2022-12-27T13:25:44.094Z,5.88
2022-12-27T13:28:36.497Z,5.77
2022-12-27T13:31:30.365Z,5.91
2022-12-27T13:34:13.232Z,5.85
2022-12-27T13:37:10.926Z,5.80
2022-12-27T13:40:16.690Z,5.85
2022-12-27T13:43:21.446Z,5.73
2022-12-27T13:46:08.425Z,5.53
2022-12-27T13:48:56.670Z,5.89
2022-12-27T13:51:27.940Z,5.91
2022-12-27T13:54:16.754Z,5.55
2022-12-27T13:56:54.513Z,5.67
2022-12-27T13:59:36.925Z,5.57
2022-12-27T14:02:19.869Z,5.56
2022-12-27T14:05:04.575Z,5.93
2022-12-27T14:07:49.011Z,6.07
2022-12-27T14:10:26.675Z,5.75
2022-12-27T14:13:01.876Z,5.69
2022-12-27T14:15:43.461Z,5.95
2022-12-27T14:18:35.381Z,5.64
2022-12-27T14:21:09.667Z,5.83
2022-12-27T14:23:55.347Z,5.64
2022-12-27T14:26:48.303Z,5.87
2022-12-27T14:29:25.128Z,5.79
2022-12-27T14:32:25.159Z,5.46
2022-12-27T14:35:04.709Z,5.75
2022-12-27T14:37:53.393Z,5.56
2022-12-27T14:40:38.705Z,5.10
2022-12-27T14:43:31.597Z,5.57
2022-12-27T14:46:17.228Z,5.28
2022-12-27T14:49:22.403Z,5.29
2022-12-27T14:52:17.271Z,5.93
2022-12-27T14:55:32.758Z,5.53
2022-12-27T14:58:12.485Z,6.00
2022-12-27T15:01:11.183Z,5.80
2022-12-27T15:03:54.559Z,5.96
2022-12-27T15:06:38.126Z,5.62
2022-12-27T15:09:27.150Z,5.28
2022-12-27T15:12:05.854Z,5.77
2022-12-27T15:14:55.106Z,6.22
2022-12-27T15:17:28.385Z,6.04
2022-12-27T15:20:24.857Z,6.31
2022-12-27T15:22:55.433Z,6.71
2022-12-27T15:25:44.425Z,7.08
2022-12-27T15:28:18.189Z,5.85
2022-12-27T15:31:09.738Z,6.13
2022-12-27T15:34:08.486Z,6.01
2022-12-27T15:36:46.566Z,5.99
2022-12-27T15:39:50.101Z,6.68
2022-12-27T15:42:34.781Z,6.76
2022-12-27T15:45:50.712Z,6.99
2022-12-27T15:48:57.122Z,6.63
2022-12-27T15:51:48.112Z,6.96
2022-12-27T15:54:33.713Z,6.48
2022-12-27T15:57:32.769Z,6.72
2022-12-27T16:00:24.573Z,6.44
2022-12-27T16:02:59.654Z,6.51
2022-12-27T16:05:45.072Z,6.27
2022-12-27T16:08:27.112Z,5.85
2022-12-27T16:10:55.318Z,6.27
2022-12-27T16:13:39.463Z,5.38
2022-12-27T16:16:11.431Z,6.04
2022-12-27T16:18:51.534Z,6.03
2022-12-27T16:21:23.657Z,6.22
2022-12-27T16:23:56.118Z,6.33
2022-12-27T16:26:30.763Z,6.52
2022-12-27T16:29:00.252Z,6.58
2022-12-27T16:31:28.808Z,6.69
2022-12-27T16:33:56.897Z,6.55
2022-12-27T16:36:31.427Z,6.46
2022-12-27T16:39:11.473Z,6.52
2022-12-27T16:41:54.281Z,6.02
2022-12-27T16:44:24.415Z,6.35
2022-12-27T16:46:51.996Z,6.60
2022-12-27T16:49:57.112Z,6.82
2022-12-27T16:53:02.366Z,6.85
2022-12-27T16:56:00.643Z,6.15
2022-12-27T16:58:31.098Z,5.76
2022-12-27T17:00:59.476Z,6.11
2022-12-27T17:03:32.194Z,5.66
2022-12-27T17:09:08.029Z,5.87
2022-12-27T17:11:43.144Z,5.86
2022-12-27T17:14:18.647Z,5.76
2022-12-27T17:16:51.296Z,5.69
2022-12-27T17:19:29.340Z,5.63
2022-12-27T17:21:58.389Z,5.54
2022-12-27T17:24:25.778Z,5.93
2022-12-27T17:26:53.055Z,5.92
2022-12-27T17:29:29.759Z,5.41
2022-12-27T17:32:03.720Z,6.02
2022-12-27T17:35:03.822Z,6.33
2022-12-27T17:37:40.329Z,6.44
2022-12-27T17:40:20.516Z,6.57
2022-12-27T17:43:24.889Z,6.54
2022-12-27T17:45:56.998Z,6.61
2022-12-27T17:48:29.187Z,6.59
2022-12-27T17:51:10.420Z,5.47
2022-12-27T17:54:06.941Z,5.54
2022-12-27T17:57:06.180Z,6.09
2022-12-27T17:59:37.643Z,6.45
2022-12-27T18:02:25.003Z,6.64
2022-12-27T18:04:54.048Z,6.12
2022-12-27T18:07:28.518Z,6.53
2022-12-27T18:09:57.947Z,5.98
2022-12-27T18:12:30.066Z,5.95
2022-12-27T18:15:02.644Z,5.72
2022-12-27T18:17:34.355Z,6.07
2022-12-27T18:20:26.266Z,6.28
2022-12-27T18:23:00.025Z,5.72
2022-12-27T18:25:34.568Z,5.97
2022-12-27T18:28:30.482Z,5.99
2022-12-27T18:31:08.572Z,5.89
2022-12-27T18:33:50.617Z,5.81
2022-12-27T18:36:23.001Z,5.56
2022-12-27T18:38:59.090Z,5.75
2022-12-27T18:41:26.763Z,5.32
2022-12-27T18:44:00.677Z,5.38
2022-12-27T18:46:33.752Z,5.70
2022-12-27T18:49:01.218Z,5.34
2022-12-27T18:51:33.170Z,5.45
2022-12-27T18:54:00.574Z,5.60
2022-12-27T18:56:32.745Z,5.55
2022-12-27T18:59:12.926Z,5.49
2022-12-27T19:01:41.796Z,5.51
2022-12-27T19:04:17.087Z,5.56
2022-12-27T19:06:51.742Z,5.63
2022-12-27T19:09:19.788Z,5.67
2022-12-27T19:12:01.224Z,5.80
2022-12-27T19:14:42.761Z,5.70
2022-12-27T19:17:17.481Z,5.74
2022-12-27T19:19:49.137Z,5.40
2022-12-27T19:22:36.453Z,5.75
2022-12-27T19:25:06.870Z,5.80
2022-12-27T19:27:34.240Z,5.62
2022-12-27T19:30:01.749Z,5.69
2022-12-27T19:32:32.219Z,5.91
2022-12-27T19:35:00.545Z,5.97
2022-12-27T19:37:28.524Z,6.14
2022-12-27T19:39:56.239Z,6.20
2022-12-27T19:42:31.355Z,6.23
2022-12-27T19:44:59.017Z,6.16
2022-12-27T19:47:27.204Z,6.19
2022-12-27T19:49:54.594Z,6.32
2022-12-27T19:52:24.899Z,6.36
2022-12-27T19:54:55.444Z,6.33
2022-12-27T19:57:23.307Z,6.17
2022-12-27T19:59:50.676Z,6.08
2022-12-27T20:02:18.552Z,6.01
2022-12-27T20:04:46.418Z,6.24
2022-12-27T20:07:20.175Z,6.10
2022-12-27T20:09:47.808Z,5.83
2022-12-27T20:12:16.988Z,6.20
2022-12-27T20:14:44.451Z,6.29
2022-12-27T20:17:12.136Z,6.08
2022-12-27T20:19:39.467Z,6.18
2022-12-27T20:22:06.883Z,5.82
2022-12-27T20:24:37.021Z,5.54
2022-12-27T20:27:04.737Z,5.65
2022-12-27T20:29:32.082Z,5.64
2022-12-27T20:31:59.917Z,5.57
2022-12-27T20:34:27.321Z,5.47
2022-12-27T20:36:55.481Z,5.64
2022-12-27T20:39:23.362Z,5.40
2022-12-27T20:41:50.748Z,5.07
2022-12-27T20:44:19.306Z,5.59
2022-12-27T20:46:47.647Z,5.79
2022-12-27T20:49:15.001Z,5.78
2022-12-27T20:51:42.338Z,5.81
2022-12-27T20:54:10.042Z,5.84
2022-12-27T20:56:37.420Z,5.96
2022-12-27T20:59:04.803Z,5.98
2022-12-27T21:01:32.512Z,5.98
2022-12-27T21:04:00.028Z,5.91
2022-12-27T21:06:28.223Z,5.38
2022-12-27T21:08:57.624Z,5.44
2022-12-27T21:11:33.171Z,5.55
2022-12-27T21:14:01.898Z,5.75
2022-12-27T21:16:30.466Z,5.89
2022-12-27T21:18:57.940Z,5.74
2022-12-27T21:21:28.399Z,5.78
2022-12-27T21:23:58.006Z,5.54
2022-12-27T21:26:27.522Z,5.26
2022-12-27T21:28:55.206Z,5.57
2022-12-27T21:31:22.681Z,5.54
2022-12-27T21:33:50.548Z,5.20
2022-12-27T21:36:25.009Z,4.90
2022-12-27T21:38:52.889Z,5.44
2022-12-27T21:41:24.985Z,4.91
2022-12-27T21:43:52.596Z,5.30
2022-12-27T21:46:27.002Z,4.69
2022-12-27T21:48:59.209Z,4.63
2022-12-27T21:51:27.050Z,4.94
2022-12-27T21:53:54.717Z,4.33
2022-12-27T21:56:22.113Z,3.96
2022-12-27T21:58:49.584Z,4.19
2022-12-27T22:01:24.109Z,4.18
2022-12-27T22:03:52.603Z,4.32
2022-12-27T22:06:30.417Z,4.74
2022-12-27T22:08:59.685Z,4.62
2022-12-27T22:11:27.231Z,4.54
2022-12-27T22:13:54.726Z,4.45
2022-12-27T22:16:27.165Z,4.71
2022-12-27T22:18:56.124Z,4.94
2022-12-27T22:21:26.119Z,4.24
2022-12-27T22:23:54.250Z,4.33
2022-12-27T22:26:23.726Z,4.79
2022-12-27T22:28:51.381Z,4.56
2022-12-27T22:31:26.068Z,4.17
2022-12-27T22:33:53.656Z,3.84
2022-12-27T22:36:22.135Z,4.58
2022-12-27T22:38:50.841Z,3.93
2022-12-27T22:41:20.832Z,4.21
2022-12-27T22:43:53.043Z,4.31
2022-12-27T22:46:20.739Z,3.72
2022-12-27T22:48:52.062Z,3.90
2022-12-27T22:51:21.823Z,3.99
2022-12-27T22:53:49.598Z,3.38
2022-12-27T22:56:20.972Z,3.56
2022-12-27T22:58:48.717Z,3.91
2022-12-27T23:01:20.946Z,3.44
2022-12-27T23:03:48.735Z,3.57
2022-12-27T23:06:16.113Z,4.01
2022-12-27T23:08:43.658Z,4.19
2022-12-27T23:11:16.168Z,4.41
2022-12-27T23:13:43.634Z,4.50
2022-12-27T23:16:11.307Z,3.97
2022-12-27T23:18:41.940Z,3.18
2022-12-27T23:21:20.868Z,3.57
2022-12-27T23:23:52.164Z,3.42
2022-12-27T23:26:21.402Z,3.79
2022-12-27T23:28:49.153Z,4.10
2022-12-27T23:31:16.913Z,4.33
2022-12-27T23:33:44.292Z,4.41
2022-12-27T23:36:12.059Z,4.42
2022-12-27T23:38:41.451Z,4.29
2022-12-27T23:41:08.966Z,4.11
2022-12-27T23:43:55.393Z,4.28
2022-12-27T23:46:25.125Z,4.24
2022-12-27T23:48:52.621Z,4.31
2022-12-27T23:51:20.167Z,4.45
2022-12-27T23:53:47.794Z,4.43
2022-12-27T23:56:17.152Z,4.20
2022-12-27T23:58:44.873Z,4.31
